sensor_id;sensor_type;location;lat;lon;timestamp;temperature;humidity
17851;DHT22;9051;51.548;14.348;2023-02-05T00:01:57;-2.80;99.90
17851;DHT22;9051;51.548;14.348;2023-02-05T00:04:30;-2.80;99.90
17851;DHT22;9051;51.548;14.348;2023-02-05T00:07:02;-2.80;99.90
17851;DHT22;9051;51.548;14.348;2023-02-05T00:09:34;-2.80;99.90
17851;DHT22;9051;51.548;14.348;2023-02-05T00:12:10;-2.90;99.90
17851;DHT22;9051;51.548;14.348;2023-02-05T00:14:42;-2.90;99.90
17851;DHT22;9051;51.548;14.348;2023-02-05T00:17:14;-2.90;99.90
17851;DHT22;9051;51.548;14.348;2023-02-05T00:19:47;-2.90;99.90
17851;DHT22;9051;51.548;14.348;2023-02-05T00:22:19;-3.00;99.90
17851;DHT22;9051;51.548;14.348;2023-02-05T00:24:51;-3.00;99.90
17851;DHT22;9051;51.548;14.348;2023-02-05T00:27:23;-3.10;99.90
17851;DHT22;9051;51.548;14.348;2023-02-05T00:29:54;-3.10;99.90
17851;DHT22;9051;51.548;14.348;2023-02-05T00:32:26;-3.20;99.90
17851;DHT22;9051;51.548;14.348;2023-02-05T00:35:01;-3.30;99.90
17851;DHT22;9051;51.548;14.348;2023-02-05T00:37:33;-3.20;99.90
17851;DHT22;9051;51.548;14.348;2023-02-05T00:40:05;-3.20;99.90
17851;DHT22;9051;51.548;14.348;2023-02-05T00:42:37;-3.20;99.90
17851;DHT22;9051;51.548;14.348;2023-02-05T00:45:09;-3.30;99.90
17851;DHT22;9051;51.548;14.348;2023-02-05T00:47:41;-3.30;99.90
17851;DHT22;9051;51.548;14.348;2023-02-05T00:50:14;-3.40;99.90
17851;DHT22;9051;51.548;14.348;2023-02-05T00:52:46;-3.40;99.90
17851;DHT22;9051;51.548;14.348;2023-02-05T00:55:18;-3.40;99.90
17851;DHT22;9051;51.548;14.348;2023-02-05T00:57:51;-3.40;99.90
17851;DHT22;9051;51.548;14.348;2023-02-05T01:00:23;-3.40;99.90
17851;DHT22;9051;51.548;14.348;2023-02-05T01:02:56;-3.40;99.90
17851;DHT22;9051;51.548;14.348;2023-02-05T01:05:29;-3.40;99.90
17851;DHT22;9051;51.548;14.348;2023-02-05T01:08:01;-3.40;99.90
17851;DHT22;9051;51.548;14.348;2023-02-05T01:10:33;-3.40;99.90
17851;DHT22;9051;51.548;14.348;2023-02-05T01:13:06;-3.50;99.90
17851;DHT22;9051;51.548;14.348;2023-02-05T01:15:38;-3.60;99.90
17851;DHT22;9051;51.548;14.348;2023-02-05T01:18:11;-3.60;99.90
17851;DHT22;9051;51.548;14.348;2023-02-05T01:20:44;-3.60;99.90
17851;DHT22;9051;51.548;14.348;2023-02-05T01:23:16;-3.60;99.90
17851;DHT22;9051;51.548;14.348;2023-02-05T01:25:48;-3.60;99.90
17851;DHT22;9051;51.548;14.348;2023-02-05T01:28:20;-3.50;99.90
17851;DHT22;9051;51.548;14.348;2023-02-05T01:30:52;-3.60;99.90
17851;DHT22;9051;51.548;14.348;2023-02-05T01:33:24;-3.50;99.90
17851;DHT22;9051;51.548;14.348;2023-02-05T01:35:57;-3.60;99.90
17851;DHT22;9051;51.548;14.348;2023-02-05T01:38:29;-3.60;99.90
17851;DHT22;9051;51.548;14.348;2023-02-05T01:41:01;-3.60;99.90
17851;DHT22;9051;51.548;14.348;2023-02-05T01:43:33;-3.60;99.90
17851;DHT22;9051;51.548;14.348;2023-02-05T01:46:15;-3.60;99.90
17851;DHT22;9051;51.548;14.348;2023-02-05T01:48:53;-3.60;99.90
17851;DHT22;9051;51.548;14.348;2023-02-05T01:51:30;-3.70;99.90
17851;DHT22;9051;51.548;14.348;2023-02-05T01:54:05;-3.60;99.90
17851;DHT22;9051;51.548;14.348;2023-02-05T01:56:39;-3.70;99.90
17851;DHT22;9051;51.548;14.348;2023-02-05T01:59:15;-3.60;99.90
17851;DHT22;9051;51.548;14.348;2023-02-05T02:01:48;-3.60;99.90
17851;DHT22;9051;51.548;14.348;2023-02-05T02:04:30;-3.60;99.90
17851;DHT22;9051;51.548;14.348;2023-02-05T02:07:05;-3.60;99.90
17851;DHT22;9051;51.548;14.348;2023-02-05T02:09:39;-3.60;99.90
17851;DHT22;9051;51.548;14.348;2023-02-05T02:12:14;-3.60;99.90
17851;DHT22;9051;51.548;14.348;2023-02-05T02:14:49;-3.60;99.90
17851;DHT22;9051;51.548;14.348;2023-02-05T02:17:23;-3.70;99.90
17851;DHT22;9051;51.548;14.348;2023-02-05T02:19:59;-3.70;99.90
17851;DHT22;9051;51.548;14.348;2023-02-05T02:22:55;-3.70;99.90
17851;DHT22;9051;51.548;14.348;2023-02-05T02:26:01;-3.70;99.90
17851;DHT22;9051;51.548;14.348;2023-02-05T02:28:57;-3.80;99.90
17851;DHT22;9051;51.548;14.348;2023-02-05T02:31:40;-3.80;99.90
17851;DHT22;9051;51.548;14.348;2023-02-05T02:34:16;-3.80;99.90
17851;DHT22;9051;51.548;14.348;2023-02-05T02:36:53;-3.80;99.90
17851;DHT22;9051;51.548;14.348;2023-02-05T02:39:31;-3.80;99.90
17851;DHT22;9051;51.548;14.348;2023-02-05T02:42:08;-3.80;99.90
17851;DHT22;9051;51.548;14.348;2023-02-05T02:44:48;-3.80;99.90
17851;DHT22;9051;51.548;14.348;2023-02-05T02:47:25;-3.80;99.90
17851;DHT22;9051;51.548;14.348;2023-02-05T02:50:02;-3.80;99.90
17851;DHT22;9051;51.548;14.348;2023-02-05T02:52:39;-3.80;99.90
17851;DHT22;9051;51.548;14.348;2023-02-05T02:55:13;-3.80;99.90
17851;DHT22;9051;51.548;14.348;2023-02-05T02:57:54;-3.80;99.90
17851;DHT22;9051;51.548;14.348;2023-02-05T03:00:29;-3.80;99.90
17851;DHT22;9051;51.548;14.348;2023-02-05T03:03:04;-3.80;99.90
17851;DHT22;9051;51.548;14.348;2023-02-05T03:05:39;-3.80;99.90
17851;DHT22;9051;51.548;14.348;2023-02-05T03:08:16;-3.80;99.90
17851;DHT22;9051;51.548;14.348;2023-02-05T03:10:54;-3.70;99.90
17851;DHT22;9051;51.548;14.348;2023-02-05T03:13:34;-3.70;99.90
17851;DHT22;9051;51.548;14.348;2023-02-05T03:16:13;-3.80;99.90
17851;DHT22;9051;51.548;14.348;2023-02-05T03:18:49;-3.80;99.90
17851;DHT22;9051;51.548;14.348;2023-02-05T03:21:27;-3.80;99.90
17851;DHT22;9051;51.548;14.348;2023-02-05T03:23:59;-3.80;99.90
17851;DHT22;9051;51.548;14.348;2023-02-05T03:26:33;-3.80;99.90
17851;DHT22;9051;51.548;14.348;2023-02-05T03:29:17;-3.80;99.90
17851;DHT22;9051;51.548;14.348;2023-02-05T03:32:05;-3.80;99.90
17851;DHT22;9051;51.548;14.348;2023-02-05T03:34:50;-3.80;99.90
17851;DHT22;9051;51.548;14.348;2023-02-05T03:37:34;-3.90;99.90
17851;DHT22;9051;51.548;14.348;2023-02-05T03:40:13;-4.00;99.90
17851;DHT22;9051;51.548;14.348;2023-02-05T03:42:57;-4.00;99.90
17851;DHT22;9051;51.548;14.348;2023-02-05T03:45:42;-4.00;99.90
17851;DHT22;9051;51.548;14.348;2023-02-05T03:48:31;-4.00;99.90
17851;DHT22;9051;51.548;14.348;2023-02-05T03:51:20;-4.00;99.90
17851;DHT22;9051;51.548;14.348;2023-02-05T03:54:04;-4.10;99.90
17851;DHT22;9051;51.548;14.348;2023-02-05T03:56:45;-4.10;99.90
17851;DHT22;9051;51.548;14.348;2023-02-05T03:59:21;-4.00;99.90
17851;DHT22;9051;51.548;14.348;2023-02-05T04:01:56;-4.00;99.90
17851;DHT22;9051;51.548;14.348;2023-02-05T04:04:31;-4.00;99.90
17851;DHT22;9051;51.548;14.348;2023-02-05T04:07:05;-4.00;99.90
17851;DHT22;9051;51.548;14.348;2023-02-05T04:09:39;-4.00;99.90
17851;DHT22;9051;51.548;14.348;2023-02-05T04:12:12;-4.00;99.90
17851;DHT22;9051;51.548;14.348;2023-02-05T04:14:45;-4.10;99.90
17851;DHT22;9051;51.548;14.348;2023-02-05T04:17:20;-4.00;99.90
17851;DHT22;9051;51.548;14.348;2023-02-05T04:19:55;-4.10;99.90
17851;DHT22;9051;51.548;14.348;2023-02-05T04:22:27;-4.10;99.90
17851;DHT22;9051;51.548;14.348;2023-02-05T04:24:59;-4.00;99.90
17851;DHT22;9051;51.548;14.348;2023-02-05T04:27:37;-4.10;99.90
17851;DHT22;9051;51.548;14.348;2023-02-05T04:30:11;-4.10;99.90
17851;DHT22;9051;51.548;14.348;2023-02-05T04:32:47;-4.10;99.90
17851;DHT22;9051;51.548;14.348;2023-02-05T04:35:22;-4.20;99.90
17851;DHT22;9051;51.548;14.348;2023-02-05T04:37:54;-4.20;99.90
17851;DHT22;9051;51.548;14.348;2023-02-05T04:40:26;-4.20;99.90
17851;DHT22;9051;51.548;14.348;2023-02-05T04:42:57;-4.30;99.90
17851;DHT22;9051;51.548;14.348;2023-02-05T04:45:29;-4.20;99.90
17851;DHT22;9051;51.548;14.348;2023-02-05T04:48:02;-4.30;99.90
17851;DHT22;9051;51.548;14.348;2023-02-05T04:50:38;-4.20;99.90
17851;DHT22;9051;51.548;14.348;2023-02-05T04:53:10;-4.20;99.90
17851;DHT22;9051;51.548;14.348;2023-02-05T04:55:42;-4.20;99.90
17851;DHT22;9051;51.548;14.348;2023-02-05T04:58:14;-4.20;99.90
17851;DHT22;9051;51.548;14.348;2023-02-05T05:00:46;-4.20;99.90
17851;DHT22;9051;51.548;14.348;2023-02-05T05:03:18;-4.30;99.90
17851;DHT22;9051;51.548;14.348;2023-02-05T05:05:51;-4.30;99.90
17851;DHT22;9051;51.548;14.348;2023-02-05T05:08:23;-4.30;99.90
17851;DHT22;9051;51.548;14.348;2023-02-05T05:10:55;-4.30;99.90
17851;DHT22;9051;51.548;14.348;2023-02-05T05:13:27;-4.30;99.90
17851;DHT22;9051;51.548;14.348;2023-02-05T05:15:59;-4.30;99.90
17851;DHT22;9051;51.548;14.348;2023-02-05T05:18:32;-4.40;99.90
17851;DHT22;9051;51.548;14.348;2023-02-05T05:21:06;-4.40;99.90
17851;DHT22;9051;51.548;14.348;2023-02-05T05:23:38;-4.40;99.90
17851;DHT22;9051;51.548;14.348;2023-02-05T05:26:11;-4.40;99.90
17851;DHT22;9051;51.548;14.348;2023-02-05T05:28:43;-4.40;99.90
17851;DHT22;9051;51.548;14.348;2023-02-05T05:31:16;-4.50;99.90
17851;DHT22;9051;51.548;14.348;2023-02-05T05:33:49;-4.50;99.90
17851;DHT22;9051;51.548;14.348;2023-02-05T05:36:22;-4.50;99.90
17851;DHT22;9051;51.548;14.348;2023-02-05T05:38:54;-4.50;99.90
17851;DHT22;9051;51.548;14.348;2023-02-05T05:41:46;-4.60;99.90
17851;DHT22;9051;51.548;14.348;2023-02-05T05:44:35;-4.60;99.90
17851;DHT22;9051;51.548;14.348;2023-02-05T05:47:07;-4.60;99.90
17851;DHT22;9051;51.548;14.348;2023-02-05T05:49:39;-4.60;99.90
17851;DHT22;9051;51.548;14.348;2023-02-05T05:52:12;-4.60;99.90
17851;DHT22;9051;51.548;14.348;2023-02-05T05:54:44;-4.60;99.90
17851;DHT22;9051;51.548;14.348;2023-02-05T05:57:16;-4.70;99.90
17851;DHT22;9051;51.548;14.348;2023-02-05T05:59:50;-4.60;99.90
17851;DHT22;9051;51.548;14.348;2023-02-05T06:02:22;-4.60;99.90
17851;DHT22;9051;51.548;14.348;2023-02-05T06:04:54;-4.60;99.90
17851;DHT22;9051;51.548;14.348;2023-02-05T06:07:27;-4.70;99.90
17851;DHT22;9051;51.548;14.348;2023-02-05T06:09:59;-4.70;99.90
17851;DHT22;9051;51.548;14.348;2023-02-05T06:12:31;-4.70;99.90
17851;DHT22;9051;51.548;14.348;2023-02-05T06:15:04;-4.70;99.90
17851;DHT22;9051;51.548;14.348;2023-02-05T06:17:35;-4.70;99.90
17851;DHT22;9051;51.548;14.348;2023-02-05T06:20:08;-4.70;99.90
17851;DHT22;9051;51.548;14.348;2023-02-05T06:22:42;-4.80;99.90
17851;DHT22;9051;51.548;14.348;2023-02-05T06:25:14;-4.80;99.90
17851;DHT22;9051;51.548;14.348;2023-02-05T06:27:46;-4.80;99.90
17851;DHT22;9051;51.548;14.348;2023-02-05T06:30:18;-4.70;99.90
17851;DHT22;9051;51.548;14.348;2023-02-05T06:32:50;-4.70;99.90
17851;DHT22;9051;51.548;14.348;2023-02-05T06:35:22;-4.60;99.90
17851;DHT22;9051;51.548;14.348;2023-02-05T06:37:55;-4.60;99.90
17851;DHT22;9051;51.548;14.348;2023-02-05T06:40:27;-4.60;99.90
17851;DHT22;9051;51.548;14.348;2023-02-05T06:43:00;-4.60;99.90
17851;DHT22;9051;51.548;14.348;2023-02-05T06:45:32;-4.60;99.90
17851;DHT22;9051;51.548;14.348;2023-02-05T06:48:04;-4.60;99.90
17851;DHT22;9051;51.548;14.348;2023-02-05T06:50:36;-4.70;99.90
17851;DHT22;9051;51.548;14.348;2023-02-05T06:53:09;-4.60;99.90
17851;DHT22;9051;51.548;14.348;2023-02-05T06:55:41;-4.60;99.90
17851;DHT22;9051;51.548;14.348;2023-02-05T06:58:13;-4.60;99.90
17851;DHT22;9051;51.548;14.348;2023-02-05T07:00:45;-4.60;99.90
17851;DHT22;9051;51.548;14.348;2023-02-05T07:03:16;-4.60;99.90
17851;DHT22;9051;51.548;14.348;2023-02-05T07:05:48;-4.60;99.90
17851;DHT22;9051;51.548;14.348;2023-02-05T07:08:22;-4.60;99.90
17851;DHT22;9051;51.548;14.348;2023-02-05T07:10:53;-4.50;99.90
17851;DHT22;9051;51.548;14.348;2023-02-05T07:13:25;-4.50;99.90
17851;DHT22;9051;51.548;14.348;2023-02-05T07:16:03;-4.50;99.90
17851;DHT22;9051;51.548;14.348;2023-02-05T07:18:35;-4.40;99.90
17851;DHT22;9051;51.548;14.348;2023-02-05T07:21:09;-4.40;99.90
17851;DHT22;9051;51.548;14.348;2023-02-05T07:23:44;-4.30;99.90
17851;DHT22;9051;51.548;14.348;2023-02-05T07:26:17;-4.20;99.90
17851;DHT22;9051;51.548;14.348;2023-02-05T07:28:49;-4.20;99.90
17851;DHT22;9051;51.548;14.348;2023-02-05T07:31:21;-4.20;99.90
17851;DHT22;9051;51.548;14.348;2023-02-05T07:33:53;-4.20;99.90
17851;DHT22;9051;51.548;14.348;2023-02-05T07:36:24;-4.20;99.90
17851;DHT22;9051;51.548;14.348;2023-02-05T07:38:58;-4.10;99.90
17851;DHT22;9051;51.548;14.348;2023-02-05T07:41:36;-4.10;99.90
17851;DHT22;9051;51.548;14.348;2023-02-05T07:44:09;-4.00;99.90
17851;DHT22;9051;51.548;14.348;2023-02-05T07:46:41;-3.90;99.90
17851;DHT22;9051;51.548;14.348;2023-02-05T07:49:13;-3.80;99.90
17851;DHT22;9051;51.548;14.348;2023-02-05T07:51:44;-3.70;99.90
17851;DHT22;9051;51.548;14.348;2023-02-05T07:54:18;-3.50;99.90
17851;DHT22;9051;51.548;14.348;2023-02-05T07:56:50;-3.40;99.90
17851;DHT22;9051;51.548;14.348;2023-02-05T07:59:22;-3.20;99.90
17851;DHT22;9051;51.548;14.348;2023-02-05T08:01:54;-3.10;99.90
17851;DHT22;9051;51.548;14.348;2023-02-05T08:04:26;-2.90;99.90
17851;DHT22;9051;51.548;14.348;2023-02-05T08:06:58;-2.80;99.90
17851;DHT22;9051;51.548;14.348;2023-02-05T08:09:31;-2.70;99.90
17851;DHT22;9051;51.548;14.348;2023-02-05T08:12:04;-2.50;99.90
17851;DHT22;9051;51.548;14.348;2023-02-05T08:14:36;-2.40;99.90
17851;DHT22;9051;51.548;14.348;2023-02-05T08:17:08;-2.30;99.90
17851;DHT22;9051;51.548;14.348;2023-02-05T08:19:40;-2.20;99.90
17851;DHT22;9051;51.548;14.348;2023-02-05T08:22:12;-2.10;99.90
17851;DHT22;9051;51.548;14.348;2023-02-05T08:24:53;-2.00;99.90
17851;DHT22;9051;51.548;14.348;2023-02-05T08:27:25;-1.90;99.90
17851;DHT22;9051;51.548;14.348;2023-02-05T08:29:57;-1.80;99.90
17851;DHT22;9051;51.548;14.348;2023-02-05T08:32:28;-1.70;99.90
17851;DHT22;9051;51.548;14.348;2023-02-05T08:35:01;-1.60;99.90
17851;DHT22;9051;51.548;14.348;2023-02-05T08:37:32;-1.50;99.90
17851;DHT22;9051;51.548;14.348;2023-02-05T08:40:07;-1.50;99.90
17851;DHT22;9051;51.548;14.348;2023-02-05T08:42:39;-1.40;99.90
17851;DHT22;9051;51.548;14.348;2023-02-05T08:45:11;-1.30;99.90
17851;DHT22;9051;51.548;14.348;2023-02-05T08:47:43;-1.30;99.90
17851;DHT22;9051;51.548;14.348;2023-02-05T08:50:15;-1.30;99.90
17851;DHT22;9051;51.548;14.348;2023-02-05T08:52:47;-1.20;99.90
17851;DHT22;9051;51.548;14.348;2023-02-05T08:55:21;-1.10;99.90
17851;DHT22;9051;51.548;14.348;2023-02-05T08:57:53;-1.10;99.90
17851;DHT22;9051;51.548;14.348;2023-02-05T09:00:31;-1.00;99.90
17851;DHT22;9051;51.548;14.348;2023-02-05T09:03:07;-1.00;99.90
17851;DHT22;9051;51.548;14.348;2023-02-05T09:05:39;-0.90;99.90
17851;DHT22;9051;51.548;14.348;2023-02-05T09:08:11;-0.90;99.90
17851;DHT22;9051;51.548;14.348;2023-02-05T09:10:45;-0.90;99.90
17851;DHT22;9051;51.548;14.348;2023-02-05T09:13:17;-0.80;99.90
17851;DHT22;9051;51.548;14.348;2023-02-05T09:15:49;-0.80;99.90
17851;DHT22;9051;51.548;14.348;2023-02-05T09:18:21;-0.70;99.90
17851;DHT22;9051;51.548;14.348;2023-02-05T09:20:53;-0.70;99.90
17851;DHT22;9051;51.548;14.348;2023-02-05T09:23:25;-0.60;99.90
17851;DHT22;9051;51.548;14.348;2023-02-05T09:25:59;-0.60;99.90
17851;DHT22;9051;51.548;14.348;2023-02-05T09:28:31;-0.50;99.90
17851;DHT22;9051;51.548;14.348;2023-02-05T09:31:07;-0.50;99.90
17851;DHT22;9051;51.548;14.348;2023-02-05T09:33:39;-0.40;99.90
17851;DHT22;9051;51.548;14.348;2023-02-05T09:36:14;-0.40;99.90
17851;DHT22;9051;51.548;14.348;2023-02-05T09:38:47;-0.30;99.90
17851;DHT22;9051;51.548;14.348;2023-02-05T09:41:25;-0.30;99.90
17851;DHT22;9051;51.548;14.348;2023-02-05T09:44:05;-0.20;99.90
17851;DHT22;9051;51.548;14.348;2023-02-05T09:46:47;-0.20;99.90
17851;DHT22;9051;51.548;14.348;2023-02-05T09:49:26;-0.10;99.90
17851;DHT22;9051;51.548;14.348;2023-02-05T09:52:08;0.00;99.90
17851;DHT22;9051;51.548;14.348;2023-02-05T09:54:44;0.00;99.90
17851;DHT22;9051;51.548;14.348;2023-02-05T09:57:28;0.10;99.90
17851;DHT22;9051;51.548;14.348;2023-02-05T10:00:06;0.10;99.90
17851;DHT22;9051;51.548;14.348;2023-02-05T10:02:46;0.20;99.90
17851;DHT22;9051;51.548;14.348;2023-02-05T10:05:27;0.20;99.90
17851;DHT22;9051;51.548;14.348;2023-02-05T10:08:07;0.20;99.90
17851;DHT22;9051;51.548;14.348;2023-02-05T10:10:46;0.20;99.90
17851;DHT22;9051;51.548;14.348;2023-02-05T10:13:28;0.30;99.90
17851;DHT22;9051;51.548;14.348;2023-02-05T10:19:53;0.40;99.90
17851;DHT22;9051;51.548;14.348;2023-02-05T10:22:31;0.40;99.90
17851;DHT22;9051;51.548;14.348;2023-02-05T10:25:32;0.40;99.90
17851;DHT22;9051;51.548;14.348;2023-02-05T10:28:11;0.50;99.90
17851;DHT22;9051;51.548;14.348;2023-02-05T10:30:54;0.50;99.90
17851;DHT22;9051;51.548;14.348;2023-02-05T10:33:39;0.50;99.90
17851;DHT22;9051;51.548;14.348;2023-02-05T10:36:12;0.60;99.90
17851;DHT22;9051;51.548;14.348;2023-02-05T10:38:46;0.70;99.90
17851;DHT22;9051;51.548;14.348;2023-02-05T10:41:23;0.70;99.90
17851;DHT22;9051;51.548;14.348;2023-02-05T10:44:02;0.80;99.90
17851;DHT22;9051;51.548;14.348;2023-02-05T10:46:36;0.80;99.90
17851;DHT22;9051;51.548;14.348;2023-02-05T10:49:15;0.90;99.90
17851;DHT22;9051;51.548;14.348;2023-02-05T10:51:49;0.90;99.90
17851;DHT22;9051;51.548;14.348;2023-02-05T10:54:26;0.90;99.90
17851;DHT22;9051;51.548;14.348;2023-02-05T10:56:58;1.00;99.90
17851;DHT22;9051;51.548;14.348;2023-02-05T10:59:33;1.10;99.90
17851;DHT22;9051;51.548;14.348;2023-02-05T11:02:08;1.00;99.90
17851;DHT22;9051;51.548;14.348;2023-02-05T11:04:57;1.10;99.90
17851;DHT22;9051;51.548;14.348;2023-02-05T11:07:35;1.10;99.90
17851;DHT22;9051;51.548;14.348;2023-02-05T11:10:14;1.10;99.90
17851;DHT22;9051;51.548;14.348;2023-02-05T11:13:00;1.20;99.90
17851;DHT22;9051;51.548;14.348;2023-02-05T11:15:52;1.20;99.90
17851;DHT22;9051;51.548;14.348;2023-02-05T11:18:33;1.30;99.90
17851;DHT22;9051;51.548;14.348;2023-02-05T11:21:07;1.30;99.90
17851;DHT22;9051;51.548;14.348;2023-02-05T11:23:55;1.20;99.90
17851;DHT22;9051;51.548;14.348;2023-02-05T11:26:30;1.30;99.90
17851;DHT22;9051;51.548;14.348;2023-02-05T11:29:18;1.40;99.90
17851;DHT22;9051;51.548;14.348;2023-02-05T11:31:51;1.30;99.90
17851;DHT22;9051;51.548;14.348;2023-02-05T11:34:28;1.40;99.90
17851;DHT22;9051;51.548;14.348;2023-02-05T11:37:05;1.50;99.90
17851;DHT22;9051;51.548;14.348;2023-02-05T11:39:51;1.50;99.90
17851;DHT22;9051;51.548;14.348;2023-02-05T11:42:58;1.70;99.90
17851;DHT22;9051;51.548;14.348;2023-02-05T11:45:32;1.60;99.90
17851;DHT22;9051;51.548;14.348;2023-02-05T11:48:19;1.70;99.90
17851;DHT22;9051;51.548;14.348;2023-02-05T11:50:54;1.70;99.90
17851;DHT22;9051;51.548;14.348;2023-02-05T11:53:30;1.60;99.90
17851;DHT22;9051;51.548;14.348;2023-02-05T11:56:08;1.60;99.90
17851;DHT22;9051;51.548;14.348;2023-02-05T11:58:42;1.70;99.90
17851;DHT22;9051;51.548;14.348;2023-02-05T12:01:21;1.80;99.90
17851;DHT22;9051;51.548;14.348;2023-02-05T12:03:57;1.90;99.90
17851;DHT22;9051;51.548;14.348;2023-02-05T12:06:39;1.90;99.90
17851;DHT22;9051;51.548;14.348;2023-02-05T12:09:16;2.00;99.90
17851;DHT22;9051;51.548;14.348;2023-02-05T12:11:57;2.10;99.90
17851;DHT22;9051;51.548;14.348;2023-02-05T12:14:40;2.30;99.90
17851;DHT22;9051;51.548;14.348;2023-02-05T12:17:31;2.40;99.90
17851;DHT22;9051;51.548;14.348;2023-02-05T12:20:14;2.50;99.90
17851;DHT22;9051;51.548;14.348;2023-02-05T12:23:31;2.70;99.90
17851;DHT22;9051;51.548;14.348;2023-02-05T12:26:28;2.80;99.90
17851;DHT22;9051;51.548;14.348;2023-02-05T12:29:17;2.80;99.90
17851;DHT22;9051;51.548;14.348;2023-02-05T12:32:00;2.70;99.90
17851;DHT22;9051;51.548;14.348;2023-02-05T12:34:42;2.80;99.90
17851;DHT22;9051;51.548;14.348;2023-02-05T12:37:27;2.70;99.90
17851;DHT22;9051;51.548;14.348;2023-02-05T12:40:15;2.40;99.90
17851;DHT22;9051;51.548;14.348;2023-02-05T13:33:41;2.40;99.90
17851;DHT22;9051;51.548;14.348;2023-02-05T13:39:44;2.30;99.90
17851;DHT22;9051;51.548;14.348;2023-02-05T13:42:32;2.40;99.90
17851;DHT22;9051;51.548;14.348;2023-02-05T13:45:39;2.40;99.90
17851;DHT22;9051;51.548;14.348;2023-02-05T13:48:30;2.40;99.90
17851;DHT22;9051;51.548;14.348;2023-02-05T13:57:21;2.60;99.90
17851;DHT22;9051;51.548;14.348;2023-02-05T14:00:00;2.50;99.90
17851;DHT22;9051;51.548;14.348;2023-02-05T14:02:44;2.60;99.90
17851;DHT22;9051;51.548;14.348;2023-02-05T14:05:26;2.60;99.90
17851;DHT22;9051;51.548;14.348;2023-02-05T14:08:01;2.60;99.90
17851;DHT22;9051;51.548;14.348;2023-02-05T14:10:36;2.60;99.90
17851;DHT22;9051;51.548;14.348;2023-02-05T14:13:15;2.60;99.90
17851;DHT22;9051;51.548;14.348;2023-02-05T14:15:50;2.50;99.90
17851;DHT22;9051;51.548;14.348;2023-02-05T14:18:46;2.40;99.90
17851;DHT22;9051;51.548;14.348;2023-02-05T14:24:43;2.30;99.90
17851;DHT22;9051;51.548;14.348;2023-02-05T14:30:36;2.30;99.90
17851;DHT22;9051;51.548;14.348;2023-02-05T14:33:32;2.30;99.90
17851;DHT22;9051;51.548;14.348;2023-02-05T14:36:30;2.20;99.90
17851;DHT22;9051;51.548;14.348;2023-02-05T14:39:05;2.20;99.90
17851;DHT22;9051;51.548;14.348;2023-02-05T14:41:52;2.10;99.90
17851;DHT22;9051;51.548;14.348;2023-02-05T14:44:28;2.10;99.90
17851;DHT22;9051;51.548;14.348;2023-02-05T14:47:04;2.00;99.90
17851;DHT22;9051;51.548;14.348;2023-02-05T14:49:40;2.00;99.90
17851;DHT22;9051;51.548;14.348;2023-02-05T14:52:25;2.00;99.90
17851;DHT22;9051;51.548;14.348;2023-02-05T14:55:00;1.90;99.90
17851;DHT22;9051;51.548;14.348;2023-02-05T14:57:39;1.80;99.90
17851;DHT22;9051;51.548;14.348;2023-02-05T15:00:29;1.80;99.90
17851;DHT22;9051;51.548;14.348;2023-02-05T15:03:23;1.70;99.90
17851;DHT22;9051;51.548;14.348;2023-02-05T15:05:58;1.70;99.90
17851;DHT22;9051;51.548;14.348;2023-02-05T15:08:41;1.70;99.90
17851;DHT22;9051;51.548;14.348;2023-02-05T15:11:21;1.60;99.90
17851;DHT22;9051;51.548;14.348;2023-02-05T15:14:36;1.60;99.90
17851;DHT22;9051;51.548;14.348;2023-02-05T15:17:39;1.60;99.90
17851;DHT22;9051;51.548;14.348;2023-02-05T15:20:25;1.50;99.90
17851;DHT22;9051;51.548;14.348;2023-02-05T15:23:03;1.40;99.90
17851;DHT22;9051;51.548;14.348;2023-02-05T15:25:38;1.40;99.90
17851;DHT22;9051;51.548;14.348;2023-02-05T15:28:23;1.30;99.90
17851;DHT22;9051;51.548;14.348;2023-02-05T15:31:08;1.30;99.90
17851;DHT22;9051;51.548;14.348;2023-02-05T15:33:51;1.20;99.90
17851;DHT22;9051;51.548;14.348;2023-02-05T15:36:30;1.20;99.90
17851;DHT22;9051;51.548;14.348;2023-02-05T15:39:13;1.10;99.90
17851;DHT22;9051;51.548;14.348;2023-02-05T15:41:52;1.00;99.90
17851;DHT22;9051;51.548;14.348;2023-02-05T15:44:27;1.00;99.90
17851;DHT22;9051;51.548;14.348;2023-02-05T15:47:03;0.90;99.90
17851;DHT22;9051;51.548;14.348;2023-02-05T15:49:38;0.90;99.90
17851;DHT22;9051;51.548;14.348;2023-02-05T15:52:16;0.80;99.90
17851;DHT22;9051;51.548;14.348;2023-02-05T15:54:49;0.80;99.90
17851;DHT22;9051;51.548;14.348;2023-02-05T15:57:25;0.70;99.90
17851;DHT22;9051;51.548;14.348;2023-02-05T15:59:58;0.70;99.90
17851;DHT22;9051;51.548;14.348;2023-02-05T16:02:32;0.60;99.90
17851;DHT22;9051;51.548;14.348;2023-02-05T16:05:16;0.60;99.90
17851;DHT22;9051;51.548;14.348;2023-02-05T16:07:48;0.50;99.90
17851;DHT22;9051;51.548;14.348;2023-02-05T16:10:26;0.40;99.90
17851;DHT22;9051;51.548;14.348;2023-02-05T16:13:00;0.40;99.90
17851;DHT22;9051;51.548;14.348;2023-02-05T16:15:37;0.30;99.90
17851;DHT22;9051;51.548;14.348;2023-02-05T16:18:15;0.30;99.90
17851;DHT22;9051;51.548;14.348;2023-02-05T16:20:51;0.30;99.90
17851;DHT22;9051;51.548;14.348;2023-02-05T16:23:26;0.20;99.90
17851;DHT22;9051;51.548;14.348;2023-02-05T16:26:03;0.20;99.90
17851;DHT22;9051;51.548;14.348;2023-02-05T16:28:39;0.10;99.90
17851;DHT22;9051;51.548;14.348;2023-02-05T16:31:15;0.10;99.90
17851;DHT22;9051;51.548;14.348;2023-02-05T16:33:53;0.10;99.90
17851;DHT22;9051;51.548;14.348;2023-02-05T16:36:29;0.00;99.90
17851;DHT22;9051;51.548;14.348;2023-02-05T16:39:04;0.00;99.90
17851;DHT22;9051;51.548;14.348;2023-02-05T16:41:39;-0.10;99.90
17851;DHT22;9051;51.548;14.348;2023-02-05T16:44:27;0.00;99.90
17851;DHT22;9051;51.548;14.348;2023-02-05T16:47:08;-0.10;99.90
17851;DHT22;9051;51.548;14.348;2023-02-05T16:49:44;-0.10;99.90
17851;DHT22;9051;51.548;14.348;2023-02-05T16:52:31;-0.20;99.90
17851;DHT22;9051;51.548;14.348;2023-02-05T16:58:04;-0.30;99.90
17851;DHT22;9051;51.548;14.348;2023-02-05T17:00:37;-0.40;99.90
17851;DHT22;9051;51.548;14.348;2023-02-05T17:03:17;-0.40;99.90
17851;DHT22;9051;51.548;14.348;2023-02-05T17:05:56;-0.50;99.90
17851;DHT22;9051;51.548;14.348;2023-02-05T17:08:31;-0.50;99.90
17851;DHT22;9051;51.548;14.348;2023-02-05T17:11:05;-0.50;99.90
17851;DHT22;9051;51.548;14.348;2023-02-05T17:13:39;-0.60;99.90
17851;DHT22;9051;51.548;14.348;2023-02-05T17:16:28;-0.60;99.90
17851;DHT22;9051;51.548;14.348;2023-02-05T17:19:01;-0.80;99.90
17851;DHT22;9051;51.548;14.348;2023-02-05T17:21:35;-0.90;99.90
17851;DHT22;9051;51.548;14.348;2023-02-05T17:24:08;-1.00;99.90
17851;DHT22;9051;51.548;14.348;2023-02-05T17:26:41;-1.10;99.90
17851;DHT22;9051;51.548;14.348;2023-02-05T17:29:14;-1.10;99.90
17851;DHT22;9051;51.548;14.348;2023-02-05T17:31:46;-1.10;99.90
17851;DHT22;9051;51.548;14.348;2023-02-05T17:34:18;-1.10;99.90
17851;DHT22;9051;51.548;14.348;2023-02-05T17:36:51;-1.10;99.90
17851;DHT22;9051;51.548;14.348;2023-02-05T17:39:23;-1.10;99.90
17851;DHT22;9051;51.548;14.348;2023-02-05T17:41:55;-1.20;99.90
17851;DHT22;9051;51.548;14.348;2023-02-05T17:44:38;-1.30;99.90
17851;DHT22;9051;51.548;14.348;2023-02-05T17:47:10;-1.30;99.90
17851;DHT22;9051;51.548;14.348;2023-02-05T17:49:42;-1.30;99.90